FNHU/NOV METAR and TAF weather

Enter ICAO airport designator
Station Type Date Time Source
FNHU METAR 2020/08/07 11:00 UTC NOAA

FNHU 071100Z 06012KT CAVOK 26/01 Q1025


Station Type Date Time Source
FNHU Decoded METAR 2020/08/07 11:00 UTC NOAA

Huambo Nova Lisboa , Angola (FNHU) 12-48S 015-45E 1701M
Aug 07, 2020 - 07:00 AM EDT / 2020.08.07 1100 UTC
Wind: from the ENE (060 degrees) at 14 MPH (12 KT):0
Visibility: greater than 7 mile(s):0
Temperature: 78 F (26 C)
Dew Point: 33 F (1 C)
Relative Humidity: 19%
Pressure (altimeter): 30.27 in. Hg (1025 hPa)
ob: FNHU 071100Z 06012KT CAVOK 26/01 Q1025
cycle: 11

Station Type Date Time Source
FNHU TAF 2020/08/07 12:57 UTC NOAA

TAF TAF FNHU 071100Z 0712/0724 06004KT CAVOK
BECMG 0722/0724 VRB03KT

Example: see airport list